FNLU/LAD METAR and TAF weather

Enter ICAO airport designator
Station Type Date Time Source
FNLU METAR 2019/02/23 03:00 UTC NOAA

FNLU 230300Z 10004KT 9999 FEW020 BKN070 24/23 Q1010 NOSIG


Station Type Date Time Source
FNLU Decoded METAR 2019/02/23 03:00 UTC NOAA

Luanda, Angola (FNLU) 08-51S 013-14E 70M
Feb 22, 2019 - 10:00 PM EST / 2019.02.23 0300 UTC
Wind: from the E (100 degrees) at 5 MPH (4 KT):0
Visibility: greater than 7 mile(s):0
Sky conditions: mostly cloudy
Temperature: 75 F (24 C)
Dew Point: 73 F (23 C)
Relative Humidity: 94%
Pressure (altimeter): 29.83 in. Hg (1010 hPa)
ob: FNLU 230300Z 10004KT 9999 FEW020 BKN070 24/23 Q1010 NOSIG
cycle: 3

Station Type Date Time Source
FNLU TAF 2019/02/22 18:51 UTC NOAA

TAF TAF FNLU 221700Z 2218/2324 VRB02KT 9000 SCT013 BKN020 FEW025CB
TEMPO 2220/2224 7000 OVC023
BECMG 2303/2305 12007KT 7000 SCT020 BKN030


Example: see airport list